Time;durP1;ratioP1;P1;durP2;ratioP2;P2;SDS_P1;SDS_P2;PMS_P1;PMS_P2;Temp;Humidity;BMP_temperature;BMP_pressure;BME280_temperature;BME280_humidity;BME280_pressure;Samples;Min_cycle;Max_cycle;Signal;HPM_P1;HPM_P2
2024/01/16 00:00:19;;;;;;;156.02;28.27;;;;;;;;;;5104445;28;20216;-56
2024/01/16 00:02:46;;;;;;;146.63;27.67;;;;;;;;;;5104216;28;20020;-58
2024/01/16 00:05:12;;;;;;;122.95;25.17;;;;;;;;;;5104460;28;20026;-59
2024/01/16 00:07:41;;;;;;;100.15;21.65;;;;;;;;;;5103835;28;20354;-55
2024/01/16 00:10:10;;;;;;;89.35;17.90;;;;;;;;;;5102805;28;20036;-57
2024/01/16 00:12:37;;;;;;;101.10;17.05;;;;;;;;;;5103774;28;20019;-61
2024/01/16 00:15:05;;;;;;;190.38;21.65;;;;;;;;;;5104789;28;20024;-60
2024/01/16 00:17:32;;;;;;;87.60;16.55;;;;;;;;;;5104350;28;20028;-55
2024/01/16 00:20:03;;;;;;;85.85;15.80;;;;;;;;;;5104185;28;20023;-60
2024/01/16 00:22:30;;;;;;;81.90;15.70;;;;;;;;;;5103311;28;20031;-52
2024/01/16 00:24:57;;;;;;;58.85;14.00;;;;;;;;;;5103806;28;20074;-57
2024/01/16 00:27:23;;;;;;;50.30;13.00;;;;;;;;;;5104141;28;20019;-55
2024/01/16 00:29:50;;;;;;;43.70;11.95;;;;;;;;;;5103871;28;20020;-52
2024/01/16 00:32:19;;;;;;;41.70;12.70;;;;;;;;;;5106306;28;20137;-56
2024/01/16 00:34:46;;;;;;;38.47;11.68;;;;;;;;;;5108719;28;20028;-52
2024/01/16 00:37:13;;;;;;;30.10;11.05;;;;;;;;;;5108119;28;20334;-57
2024/01/16 00:39:39;;;;;;;27.60;10.23;;;;;;;;;;5108129;28;20031;-52
2024/01/16 00:42:06;;;;;;;40.08;11.23;;;;;;;;;;5108426;28;20012;-55
2024/01/16 00:44:33;;;;;;;39.55;12.23;;;;;;;;;;5098788;28;20028;-57
2024/01/16 00:47:01;;;;;;;36.05;11.90;;;;;;;;;;5103293;28;20057;-55
2024/01/16 00:49:28;;;;;;;44.25;12.18;;;;;;;;;;5106116;28;20043;-53
2024/01/16 00:51:55;;;;;;;48.33;12.30;;;;;;;;;;5107945;28;20081;-53
2024/01/16 00:54:22;;;;;;;61.78;14.20;;;;;;;;;;5094883;28;20028;-58
2024/01/16 00:56:48;;;;;;;44.83;12.15;;;;;;;;;;5087557;28;20220;-54
2024/01/16 00:59:15;;;;;;;26.95;11.65;;;;;;;;;;5089955;28;20184;-60
2024/01/16 01:01:42;;;;;;;28.73;11.95;;;;;;;;;;5107551;28;20315;-54
2024/01/16 01:04:08;;;;;;;28.45;11.52;;;;;;;;;;5107716;28;20073;-57
2024/01/16 01:06:36;;;;;;;63.05;13.30;;;;;;;;;;5107830;28;20285;-60
2024/01/16 01:09:03;;;;;;;55.03;12.88;;;;;;;;;;5108023;28;20046;-52
2024/01/16 01:11:29;;;;;;;33.65;11.38;;;;;;;;;;5107823;28;20024;-56
2024/01/16 01:13:56;;;;;;;27.58;10.75;;;;;;;;;;5108054;28;20020;-58
2024/01/16 01:16:22;;;;;;;47.50;12.32;;;;;;;;;;5107712;28;20332;-61
2024/01/16 01:18:49;;;;;;;29.30;10.60;;;;;;;;;;5101053;28;20032;-63
2024/01/16 01:21:16;;;;;;;18.35;9.75;;;;;;;;;;5093531;28;20051;-63
2024/01/16 01:23:44;;;;;;;16.48;10.15;;;;;;;;;;5087329;28;20020;-59
2024/01/16 01:26:13;;;;;;;22.83;9.85;;;;;;;;;;5087146;28;20186;-60
2024/01/16 01:28:40;;;;;;;18.25;9.02;;;;;;;;;;5087335;28;20084;-59
2024/01/16 01:31:09;;;;;;;15.60;10.00;;;;;;;;;;5096155;28;20247;-55
2024/01/16 01:33:36;;;;;;;25.25;10.25;;;;;;;;;;5102539;28;20026;-53
2024/01/16 01:36:02;;;;;;;43.15;11.63;;;;;;;;;;5106025;28;20331;-63
2024/01/16 01:38:29;;;;;;;66.75;12.10;;;;;;;;;;5107219;28;20036;-59
2024/01/16 01:40:56;;;;;;;19.63;9.45;;;;;;;;;;5107055;28;20048;-59
2024/01/16 01:43:24;;;;;;;13.43;8.65;;;;;;;;;;5106597;28;20016;-55
2024/01/16 01:46:10;;;;;;;17.02;10.25;;;;;;;;;;5106425;28;20020;-56
2024/01/16 01:48:38;;;;;;;18.35;10.00;;;;;;;;;;5102410;28;20027;-55
2024/01/16 01:51:05;;;;;;;13.68;8.38;;;;;;;;;;5103716;28;20227;-56
2024/01/16 01:53:32;;;;;;;22.95;9.15;;;;;;;;;;5106811;28;20035;-60
2024/01/16 01:56:00;;;;;;;22.38;9.52;;;;;;;;;;5106328;28;20027;-59
2024/01/16 01:58:26;;;;;;;12.35;7.65;;;;;;;;;;5105150;28;20024;-61
2024/01/16 02:00:53;;;;;;;15.68;8.65;;;;;;;;;;5106070;28;20089;-64
2024/01/16 02:03:20;;;;;;;11.40;8.43;;;;;;;;;;5106447;28;20016;-63
2024/01/16 02:05:46;;;;;;;12.30;8.10;;;;;;;;;;5106153;28;20024;-62
2024/01/16 02:08:13;;;;;;;18.88;9.00;;;;;;;;;;5106282;28;20026;-56
2024/01/16 02:10:40;;;;;;;100.03;15.75;;;;;;;;;;5101199;28;20020;-56
2024/01/16 02:13:07;;;;;;;28.50;9.18;;;;;;;;;;5105816;28;20078;-55
2024/01/16 02:15:34;;;;;;;21.67;8.98;;;;;;;;;;5105243;28;20351;-55
2024/01/16 02:18:00;;;;;;;18.35;8.20;;;;;;;;;;5105208;28;20024;-53
2024/01/16 02:20:27;;;;;;;14.95;8.60;;;;;;;;;;5106335;28;20019;-56
2024/01/16 02:22:55;;;;;;;13.63;8.63;;;;;;;;;;5105796;28;20028;-57
2024/01/16 02:25:21;;;;;;;15.77;8.23;;;;;;;;;;5102214;28;20045;-55
2024/01/16 02:27:48;;;;;;;18.13;8.05;;;;;;;;;;5101482;28;20312;-56
2024/01/16 02:30:15;;;;;;;12.27;7.13;;;;;;;;;;5106129;28;20065;-59
2024/01/16 02:32:42;;;;;;;10.38;7.03;;;;;;;;;;5101513;28;20026;-56
2024/01/16 02:35:09;;;;;;;9.77;7.57;;;;;;;;;;5098830;28;20041;-55
2024/01/16 02:37:36;;;;;;;8.93;7.20;;;;;;;;;;5105840;28;20091;-56
2024/01/16 02:40:06;;;;;;;14.70;7.93;;;;;;;;;;5106451;28;20024;-54
2024/01/16 02:42:37;;;;;;;13.20;7.72;;;;;;;;;;5106252;28;20312;-59
2024/01/16 02:45:04;;;;;;;23.95;8.23;;;;;;;;;;5106261;28;20020;-58
2024/01/16 02:47:31;;;;;;;17.52;7.28;;;;;;;;;;5104288;28;20032;-56
2024/01/16 02:49:57;;;;;;;13.23;7.68;;;;;;;;;;5105454;28;20027;-55
2024/01/16 02:52:24;;;;;;;14.93;8.02;;;;;;;;;;5105786;28;20024;-51
2024/01/16 02:54:51;;;;;;;13.88;8.18;;;;;;;;;;5102713;28;20020;-57
2024/01/16 02:57:17;;;;;;;22.63;9.57;;;;;;;;;;5094086;28;20312;-57
2024/01/16 02:59:47;;;;;;;22.05;8.38;;;;;;;;;;5085049;28;20112;-53
2024/01/16 03:02:13;;;;;;;17.52;7.70;;;;;;;;;;5085067;28;20016;-52
2024/01/16 03:04:40;;;;;;;17.83;8.02;;;;;;;;;;5100209;28;20028;-51
2024/01/16 03:07:07;;;;;;;16.05;8.02;;;;;;;;;;5105332;28;20257;-54
2024/01/16 03:09:37;;;;;;;12.43;7.82;;;;;;;;;;5105982;28;20068;-54
2024/01/16 03:12:03;;;;;;;19.88;8.07;;;;;;;;;;5105279;28;20308;-56
2024/01/16 03:14:34;;;;;;;17.35;7.63;;;;;;;;;;5105368;28;20365;-60
2024/01/16 03:17:04;;;;;;;10.35;6.88;;;;;;;;;;5105844;28;20034;-52
2024/01/16 03:19:33;;;;;;;10.57;7.13;;;;;;;;;;5098437;28;20038;-56
2024/01/16 03:22:06;;;;;;;13.57;7.50;;;;;;;;;;5088238;28;20021;-57
2024/01/16 03:24:38;;;;;;;16.90;7.38;;;;;;;;;;5091882;28;20016;-60
2024/01/16 03:27:05;;;;;;;17.13;8.15;;;;;;;;;;5105005;28;20043;-57
2024/01/16 03:29:33;;;;;;;14.98;7.75;;;;;;;;;;5105607;28;20027;-53
2024/01/16 03:32:00;;;;;;;13.43;7.90;;;;;;;;;;5103568;28;20031;-59
2024/01/16 03:34:27;;;;;;;11.40;7.53;;;;;;;;;;5105467;28;20038;-53
2024/01/16 03:36:54;;;;;;;11.45;7.30;;;;;;;;;;5104145;28;20032;-53
2024/01/16 03:39:20;;;;;;;16.65;7.70;;;;;;;;;;5104957;28;20035;-53
2024/01/16 03:41:47;;;;;;;;;;;;;;;;;;5104378;28;20096;-53
2024/01/16 03:44:13;;;;;;;;;;;;;;;;;;5104272;28;20101;-53
2024/01/16 03:46:39;;;;;;;;;;;;;;;;;;5103592;28;19911;-58
2024/01/16 03:49:05;;;;;;;;;;;;;;;;;;5104117;28;19946;-55
2024/01/16 03:51:32;;;;;;;;;;;;;;;;;;5095727;28;19923;-52
2024/01/16 03:53:58;;;;;;;;;;;;;;;;;;5085204;28;20084;-52
2024/01/16 03:56:24;;;;;;;;;;;;;;;;;;5084897;28;19911;-58
2024/01/16 03:58:50;;;;;;;;;;;;;;;;;;5084537;28;20038;-53
2024/01/16 04:01:16;;;;;;;;;;;;;;;;;;5084289;28;19923;-53
2024/01/16 04:03:42;;;;;;;;;;;;;;;;;;5084702;28;20062;-54
2024/01/16 04:06:09;;;;;;;;;;;;;;;;;;5083917;28;19911;-53
2024/01/16 04:08:35;;;;;;;;;;;;;;;;;;5084608;28;20234;-52
2024/01/16 04:11:01;;;;;;;;;;;;;;;;;;5084413;28;19910;-58
2024/01/16 04:13:27;;;;;;;;;;;;;;;;;;5098809;28;19908;-55
2024/01/16 04:15:53;;;;;;;;;;;;;;;;;;5104740;28;20191;-52
2024/01/16 04:18:20;;;;;;;;;;;;;;;;;;5104648;28;19927;-56
2024/01/16 04:20:46;;;;;;;;;;;;;;;;;;5104839;28;19911;-54
2024/01/16 04:23:12;;;;;;;;;;;;;;;;;;5105203;28;19908;-51
2024/01/16 04:25:39;;;;;;;;;;;;;;;;;;5104620;28;19904;-59
2024/01/16 04:28:05;;;;;;;;;;;;;;;;;;5104690;28;19928;-52
2024/01/16 04:30:31;;;;;;;;;;;;;;;;;;5098043;28;19916;-58
2024/01/16 04:32:57;;;;;;;;;;;;;;;;;;5090748;28;19943;-54
2024/01/16 04:35:24;;;;;;;;;;;;;;;;;;5084154;28;19905;-51
2024/01/16 04:37:50;;;;;;;;;;;;;;;;;;5084485;28;19911;-57
2024/01/16 04:40:16;;;;;;;;;;;;;;;;;;5084252;28;19997;-61
2024/01/16 04:42:43;;;;;;;;;;;;;;;;;;5083898;28;19909;-57
2024/01/16 04:45:09;;;;;;;;;;;;;;;;;;5083966;28;20018;-54
2024/01/16 04:47:35;;;;;;;;;;;;;;;;;;5084013;28;19905;-58
2024/01/16 04:50:01;;;;;;;;;;;;;;;;;;5083788;28;19966;-52
2024/01/16 04:52:28;;;;;;;;;;;;;;;;;;5083962;28;19904;-56
2024/01/16 04:54:54;;;;;;;;;;;;;;;;;;5083773;28;19927;-58
2024/01/16 04:57:20;;;;;;;;;;;;;;;;;;5083579;28;19901;-52
2024/01/16 04:59:46;;;;;;;;;;;;;;;;;;5084240;28;20333;-56
2024/01/16 05:02:14;;;;;;;;;;;;;;;;;;5083720;28;19940;-54
2024/01/16 05:04:40;;;;;;;;;;;;;;;;;;5083868;28;20242;-53
2024/01/16 05:07:06;;;;;;;;;;;;;;;;;;5083855;28;19904;-57
2024/01/16 05:09:32;;;;;;;;;;;;;;;;;;5084144;28;19905;-55
2024/01/16 05:11:58;;;;;;;;;;;;;;;;;;5083577;28;19911;-56
2024/01/16 05:14:25;;;;;;;;;;;;;;;;;;5086588;28;19950;-55
2024/01/16 05:16:51;;;;;;;;;;;;;;;;;;5092782;28;20014;-53
2024/01/16 05:19:17;;;;;;;;;;;;;;;;;;5087234;28;19908;-56
2024/01/16 05:21:43;;;;;;;;;;;;;;;;;;5087314;28;19916;-52
2024/01/16 05:24:09;;;;;;;;;;;;;;;;;;5087772;28;19927;-52
2024/01/16 05:26:36;;;;;;;;;;;;;;;;;;5096911;28;19908;-55
2024/01/16 05:29:02;;;;;;;;;;;;;;;;;;5089403;28;19944;-52
2024/01/16 05:31:28;;;;;;;;;;;;;;;;;;5087184;28;19904;-51
2024/01/16 05:33:54;;;;;;;;;;;;;;;;;;5087517;28;19927;-53
2024/01/16 05:36:20;;;;;;;;;;;;;;;;;;5086837;28;19912;-52
2024/01/16 05:38:47;;;;;;;;;;;;;;;;;;5087406;28;19961;-52
2024/01/16 05:41:13;;;;;;;;;;;;;;;;;;5086870;28;19971;-56
2024/01/16 05:43:39;;;;;;;;;;;;;;;;;;5087199;28;20199;-53
2024/01/16 05:46:05;;;;;;;;;;;;;;;;;;5086907;28;20005;-53
2024/01/16 05:48:31;;;;;;;;;;;;;;;;;;5087057;28;19904;-54
2024/01/16 05:50:57;;;;;;;;;;;;;;;;;;5086592;28;19936;-58
2024/01/16 05:53:24;;;;;;;;;;;;;;;;;;5086979;28;19971;-56
2024/01/16 05:55:50;;;;;;;;;;;;;;;;;;5086755;28;20034;-57
2024/01/16 05:58:16;;;;;;;;;;;;;;;;;;5086716;28;19911;-53
2024/01/16 06:00:42;;;;;;;;;;;;;;;;;;5086755;28;19916;-59
2024/01/16 06:03:08;;;;;;;;;;;;;;;;;;5086903;28;19909;-54
2024/01/16 06:05:35;;;;;;;;;;;;;;;;;;5086439;28;19905;-55
2024/01/16 06:08:01;;;;;;;;;;;;;;;;;;5086595;28;20188;-53
2024/01/16 06:10:28;;;;;;;;;;;;;;;;;;5086457;28;19905;-52
2024/01/16 06:12:55;;;;;;;;;;;;;;;;;;5086630;28;19905;-58
2024/01/16 06:15:21;;;;;;;;;;;;;;;;;;5086359;28;19904;-54
2024/01/16 06:17:47;;;;;;;;;;;;;;;;;;5086474;28;19946;-53
2024/01/16 06:20:13;;;;;;;;;;;;;;;;;;5086308;28;20223;-53
2024/01/16 06:22:39;;;;;;;;;;;;;;;;;;5086262;28;19916;-56
2024/01/16 06:25:06;;;;;;;;;;;;;;;;;;5086343;28;19910;-53
2024/01/16 06:27:32;;;;;;;;;;;;;;;;;;5086347;28;19980;-53
2024/01/16 06:29:58;;;;;;;;;;;;;;;;;;5084985;28;19904;-58
2024/01/16 06:32:24;;;;;;;;;;;;;;;;;;5086106;28;19900;-54
2024/01/16 06:34:51;;;;;;;;;;;;;;;;;;5086505;28;19937;-56
2024/01/16 06:37:17;;;;;;;;;;;;;;;;;;5085930;28;19909;-54
2024/01/16 06:39:43;;;;;;;;;;;;;;;;;;5085962;28;20093;-53
2024/01/16 06:42:09;;;;;;;;;;;;;;;;;;5085928;28;20214;-53
2024/01/16 06:44:36;;;;;;;;;;;;;;;;;;5086081;28;19908;-54
2024/01/16 06:47:02;;;;;;;;;;;;;;;;;;5085796;28;19900;-52
2024/01/16 06:49:28;;;;;;;;;;;;;;;;;;5086498;28;19927;-54
2024/01/16 06:51:55;;;;;;;;;;;;;;;;;;5085499;28;19905;-57
2024/01/16 06:54:23;;;;;;;;;;;;;;;;;;5086164;28;19922;-55
2024/01/16 06:56:49;;;;;;;;;;;;;;;;;;5084665;28;20113;-54
2024/01/16 06:59:16;;;;;;;;;;;;;;;;;;5086412;28;19910;-51
2024/01/16 07:01:42;;;;;;;;;;;;;;;;;;5085152;28;19954;-50
2024/01/16 07:04:08;;;;;;;;;;;;;;;;;;5085919;28;19911;-56
2024/01/16 07:06:34;;;;;;;;;;;;;;;;;;5085639;28;19908;-52
2024/01/16 07:09:00;;;;;;;;;;;;;;;;;;5085627;28;19911;-54
2024/01/16 07:11:27;;;;;;;;;;;;;;;;;;5085490;28;19911;-50
2024/01/16 07:13:53;;;;;;;;;;;;;;;;;;5085769;28;20081;-50
2024/01/16 07:16:19;;;;;;;;;;;;;;;;;;5085087;28;19936;-50
2024/01/16 07:18:45;;;;;;;;;;;;;;;;;;5085739;28;19904;-53
2024/01/16 07:21:12;;;;;;;;;;;;;;;;;;5085035;28;19904;-51
2024/01/16 07:23:39;;;;;;;;;;;;;;;;;;5085200;28;20096;-51
2024/01/16 07:26:05;;;;;;;;;;;;;;;;;;5085073;28;20024;-51
2024/01/16 07:28:31;;;;;;;;;;;;;;;;;;5085126;28;19926;-57
2024/01/16 07:30:58;;;;;;;;;;;;;;;;;;5084779;28;19905;-49
2024/01/16 07:33:24;;;;;;;;;;;;;;;;;;5085017;28;20139;-49
2024/01/16 07:35:50;;;;;;;;;;;;;;;;;;5084730;28;19904;-50
2024/01/16 07:38:16;;;;;;;;;;;;;;;;;;5084724;28;19904;-58
2024/01/16 07:40:42;;;;;;;;;;;;;;;;;;5084540;28;19904;-52
2024/01/16 07:43:09;;;;;;;;;;;;;;;;;;5084759;28;19909;-50
2024/01/16 07:45:35;;;;;;;;;;;;;;;;;;5084592;28;20192;-57
2024/01/16 07:48:01;;;;;;;;;;;;;;;;;;5084842;28;19912;-54
2024/01/16 07:50:27;;;;;;;;;;;;;;;;;;5084479;28;19904;-49
2024/01/16 07:52:53;;;;;;;;;;;;;;;;;;5084728;28;20096;-53
2024/01/16 07:55:20;;;;;;;;;;;;;;;;;;5084478;28;19942;-58
2024/01/16 07:57:46;;;;;;;;;;;;;;;;;;5084523;28;19904;-51
2024/01/16 08:00:12;;;;;;;;;;;;;;;;;;5084380;28;19923;-51
2024/01/16 08:02:38;;;;;;;;;;;;;;;;;;5084397;28;20171;-50
2024/01/16 08:05:05;;;;;;;;;;;;;;;;;;5084325;28;20196;-57
2024/01/16 08:07:31;;;;;;;;;;;;;;;;;;5084452;28;19916;-51
2024/01/16 08:09:57;;;;;;;;;;;;;;;;;;5084343;28;19946;-56
2024/01/16 08:12:23;;;;;;;;;;;;;;;;;;5084458;28;19928;-54
2024/01/16 08:14:50;;;;;;;;;;;;;;;;;;5084383;28;19911;-51
2024/01/16 08:17:16;;;;;;;;;;;;;;;;;;5084326;28;19901;-52
2024/01/16 08:19:42;;;;;;;;;;;;;;;;;;5084411;28;19936;-53
2024/01/16 08:22:08;;;;;;;;;;;;;;;;;;5084048;28;19904;-51
2024/01/16 08:24:34;;;;;;;;;;;;;;;;;;5084489;28;19959;-51
2024/01/16 08:27:01;;;;;;;;;;;;;;;;;;5084266;28;19971;-55
2024/01/16 08:29:27;;;;;;;;;;;;;;;;;;5084785;28;19977;-51
2024/01/16 08:31:53;;;;;;;;;;;;;;;;;;5084131;28;20070;-54
2024/01/16 08:34:19;;;;;;;;;;;;;;;;;;5084457;28;19920;-51
2024/01/16 08:36:45;;;;;;;;;;;;;;;;;;5084433;28;19904;-56
2024/01/16 08:39:12;;;;;;;;;;;;;;;;;;5084996;28;19935;-55
2024/01/16 08:41:38;;;;;;;;;;;;;;;;;;5084070;28;19908;-52
2024/01/16 08:44:04;;;;;;;;;;;;;;;;;;5084596;28;20201;-55
2024/01/16 08:46:31;;;;;;;;;;;;;;;;;;5084112;28;19946;-58
2024/01/16 08:48:57;;;;;;;;;;;;;;;;;;5084190;28;19912;-58
2024/01/16 08:51:23;;;;;;;;;;;;;;;;;;5083957;28;19928;-52
2024/01/16 08:53:49;;;;;;;;;;;;;;;;;;5086922;28;19911;-52
2024/01/16 08:56:17;;;;;;;;;;;;;;;;;;5087943;28;19905;-51
2024/01/16 08:58:43;;;;;;;;;;;;;;;;;;5087751;28;19971;-51
2024/01/16 09:01:10;;;;;;;;;;;;;;;;;;5087662;28;19916;-50
2024/01/16 09:03:36;;;;;;;;;;;;;;;;;;5087971;28;19967;-50
2024/01/16 09:06:02;;;;;;;;;;;;;;;;;;5088127;28;19970;-53
2024/01/16 09:08:28;;;;;;;;;;;;;;;;;;5088091;28;19926;-51
2024/01/16 09:10:55;;;;;;;;;;;;;;;;;;5087544;28;19910;-58
2024/01/16 09:13:21;;;;;;;;;;;;;;;;;;5087955;28;19905;-52
2024/01/16 09:15:47;;;;;;;;;;;;;;;;;;5088027;28;19911;-54
2024/01/16 09:18:13;;;;;;;;;;;;;;;;;;5087603;28;19904;-59
2024/01/16 09:20:39;;;;;;;;;;;;;;;;;;5087638;28;19912;-52
2024/01/16 09:23:06;;;;;;;;;;;;;;;;;;5087648;28;19931;-53
2024/01/16 09:25:32;;;;;;;;;;;;;;;;;;5087548;28;19904;-52
2024/01/16 09:27:58;;;;;;;;;;;;;;;;;;5087290;28;19936;-52
2024/01/16 09:30:24;;;;;;;;;;;;;;;;;;5087410;28;20067;-52
2024/01/16 09:32:50;;;;;;;;;;;;;;;;;;5087375;28;19911;-54
2024/01/16 09:35:17;;;;;;;;;;;;;;;;;;5087369;28;19904;-53
2024/01/16 09:37:43;;;;;;;;;;;;;;;;;;5087241;28;19904;-52
2024/01/16 09:40:09;;;;;;;;;;;;;;;;;;5086961;28;19927;-53
2024/01/16 09:42:36;;;;;;;;;;;;;;;;;;5087288;28;19915;-55
2024/01/16 09:45:05;;;;;;;;;;;;;;;;;;5087605;28;19904;-56
2024/01/16 09:47:34;;;;;;;;;;;;;;;;;;5087024;28;19916;-58
2024/01/16 09:50:02;;;;;;;;;;;;;;;;;;5086962;28;19904;-53
2024/01/16 09:52:28;;;;;;;;;;;;;;;;;;5087026;28;19900;-56
2024/01/16 09:54:54;;;;;;;;;;;;;;;;;;5086850;28;19911;-52
2024/01/16 09:57:22;;;;;;;;;;;;;;;;;;5086694;28;20195;-55
2024/01/16 09:59:48;;;;;;;;;;;;;;;;;;5086770;28;19913;-51
2024/01/16 10:02:15;;;;;;;;;;;;;;;;;;5086931;28;19951;-53
2024/01/16 10:04:41;;;;;;;;;;;;;;;;;;5085307;28;19908;-54
2024/01/16 10:07:07;;;;;;;;;;;;;;;;;;5086427;28;20157;-56
2024/01/16 10:09:33;;;;;;;;;;;;;;;;;;5087338;28;19911;-55
2024/01/16 10:12:00;;;;;;;;;;;;;;;;;;5086435;28;19907;-53
2024/01/16 10:14:26;;;;;;;;;;;;;;;;;;5087015;28;20003;-53
2024/01/16 10:16:53;;;;;;;;;;;;;;;;;;5086675;28;19936;-53
2024/01/16 10:19:19;;;;;;;;;;;;;;;;;;5086621;28;19935;-56
2024/01/16 10:21:45;;;;;;;;;;;;;;;;;;5086128;28;20081;-54
2024/01/16 10:24:12;;;;;;;;;;;;;;;;;;5086823;28;19904;-57
2024/01/16 10:26:38;;;;;;;;;;;;;;;;;;5086524;28;19911;-56
2024/01/16 10:29:04;;;;;;;;;;;;;;;;;;5111054;28;19975;-53
2024/01/16 10:31:31;;;;;;;;;;;;;;;;;;5127006;27;19939;-52
2024/01/16 10:33:57;;;;;;;;;;;;;;;;;;5127240;28;19904;-53
2024/01/16 10:36:23;;;;;;;;;;;;;;;;;;5126550;28;19903;-54
2024/01/16 10:38:57;;;;;;;;;;;;;;;;;;5126948;28;19903;-55
2024/01/16 10:41:25;;;;;;;;;;;;;;;;;;5126372;28;19907;-53
2024/01/16 10:43:54;;;;;;;;;;;;;;;;;;5127604;28;19903;-51
2024/01/16 10:46:20;;;;;;;;;;;;;;;;;;5126734;28;19903;-52
2024/01/16 10:48:46;;;;;;;;;;;;;;;;;;5126734;28;19907;-53
2024/01/16 10:51:13;;;;;;;;;;;;;;;;;;5126435;28;19942;-53
2024/01/16 10:53:40;;;;;;;;;;;;;;;;;;5126837;28;19904;-57
2024/01/16 10:56:06;;;;;;;;;;;;;;;;;;5127264;28;20192;-53
2024/01/16 10:58:32;;;;;;;;;;;;;;;;;;5126796;28;19911;-52
2024/01/16 11:00:58;;;;;;;;;;;;;;;;;;5115103;28;20217;-51
2024/01/16 11:03:24;;;;;;;;;;;;;;;;;;5106044;28;19908;-55
2024/01/16 11:05:50;;;;;;;;;;;;;;;;;;5105590;28;19904;-53
2024/01/16 11:08:17;;;;;;;;;;;;;;;;;;5105983;28;19978;-51
2024/01/16 11:10:43;;;;;;;;;;;;;;;;;;5105629;28;20245;-55
2024/01/16 11:13:09;;;;;;;;;;;;;;;;;;5105646;28;19903;-55
2024/01/16 11:15:35;;;;;;;;;;;;;;;;;;5101916;28;19905;-63
2024/01/16 11:18:01;;;;;;;;;;;;;;;;;;5105719;28;19919;-55
2024/01/16 11:20:27;;;;;;;;;;;;;;;;;;5105326;28;19911;-51
2024/01/16 11:22:59;;;;;;;;;;;;;;;;;;5105606;28;19908;-60
2024/01/16 11:25:25;;;;;;;;;;;;;;;;;;5105552;28;19904;-62
2024/01/16 11:27:52;;;;;;;;;;;;;;;;;;5105317;28;19911;-62
2024/01/16 11:30:18;;;;;;;;;;;;;;;;;;5105738;28;20195;-63
2024/01/16 11:32:44;;;;;;;;;;;;;;;;;;5105516;28;19907;-63
2024/01/16 11:35:13;;;;;;;;;;;;;;;;;;5105094;28;19930;-62
2024/01/16 11:37:39;;;;;;;;;;;;;;;;;;5105413;28;19900;-62
2024/01/16 11:40:06;;;;;;;;;;;;;;;;;;5104172;28;19949;-61
2024/01/16 11:42:32;;;;;;;;;;;;;;;;;;5103339;28;19904;-62
2024/01/16 11:44:58;;;;;;;;;;;;;;;;;;5103806;28;20233;-61
2024/01/16 11:47:24;;;;;;;;;;;;;;;;;;5102230;28;19930;-61
2024/01/16 11:49:51;;;;;;;;;;;;;;;;;;5103529;28;19912;-62
2024/01/16 11:52:17;;;;;;;;;;;;;;;;;;5103444;28;19906;-62
2024/01/16 11:54:43;;;;;;;;;;;;;;;;;;5104273;28;19916;-66
2024/01/16 11:57:09;;;;;;;;;;;;;;;;;;5105268;28;19900;-62
2024/01/16 11:59:36;;;;;;;;;;;;;;;;;;5104785;28;19927;-63
2024/01/16 12:02:02;;;;;;;;;;;;;;;;;;5105050;28;20184;-63
2024/01/16 12:04:28;;;;;;;;;;;;;;;;;;5105516;28;19903;-64
2024/01/16 12:06:57;;;;;;;;;;;;;;;;;;5105362;28;20364;-64
2024/01/16 12:09:23;;;;;;;;;;;;;;;;;;5105291;28;19970;-63
2024/01/16 12:11:49;;;;;;;;;;;;;;;;;;5105070;28;19904;-63
2024/01/16 12:14:15;;;;;;;;;;;;;;;;;;5103658;28;20099;-63
2024/01/16 12:16:41;;;;;;;;;;;;;;;;;;5104963;28;19946;-64
2024/01/16 12:19:08;;;;;;;;;;;;;;;;;;5105121;28;20207;-63
2024/01/16 12:21:34;;;;;;;;;;;;;;;;;;5104547;28;19937;-63
2024/01/16 12:24:00;;;;;;;;;;;;;;;;;;5103874;28;19904;-62
2024/01/16 12:26:26;;;;;;;;;;;;;;;;;;5104883;28;20192;-64
2024/01/16 12:28:53;;;;;;;;;;;;;;;;;;5104033;28;19904;-66
2024/01/16 12:31:19;;;;;;;;;;;;;;;;;;5105114;28;20104;-65
2024/01/16 12:33:45;;;;;;;;;;;;;;;;;;5105311;28;19935;-64
2024/01/16 12:36:11;;;;;;;;;;;;;;;;;;5104874;28;19971;-63
2024/01/16 12:38:38;;;;;;;;;;;;;;;;;;5104634;28;20096;-63
2024/01/16 12:41:06;;;;;;;;;;;;;;;;;;5104485;28;19949;-64
2024/01/16 12:43:33;;;;;;;;;;;;;;;;;;5104959;28;19908;-62
2024/01/16 12:45:59;;;;;;;;;;;;;;;;;;5105003;28;19911;-62
2024/01/16 12:48:25;;;;;;;;;;;;;;;;;;5103528;28;19908;-63
2024/01/16 12:50:51;;;;;;;;;;;;;;;;;;5104491;28;19911;-65
2024/01/16 12:53:19;;;;;;;;;;;;;;;;;;5104925;28;20124;-66
2024/01/16 12:55:45;;;;;;;;;;;;;;;;;;5104804;28;19908;-65
2024/01/16 12:58:11;;;;;;;;;;;;;;;;;;5104962;28;19975;-62
2024/01/16 13:00:39;;;;;;;;;;;;;;;;;;5104736;28;19945;-62
2024/01/16 13:03:05;;;;;;;;;;;;;;;;;;5095361;28;20045;-63
2024/01/16 13:05:32;;;;;;;;;;;;;;;;;;5104130;28;19961;-60
2024/01/16 13:07:58;;;;;;;;;;;;;;;;;;5103818;28;19908;-63
2024/01/16 13:10:25;;;;;;;;;;;;;;;;;;5099619;28;19915;-63
2024/01/16 13:12:51;;;;;;;;;;;;;;;;;;5103390;28;19916;-63
2024/01/16 13:15:17;;;;;;;;;;;;;;;;;;5103641;28;19949;-61
2024/01/16 13:17:43;;;;;;;;;;;;;;;;;;5103844;28;19904;-61
2024/01/16 13:20:10;;;;;;;;;;;;;;;;;;5103743;28;19971;-62
2024/01/16 13:22:36;;;;;;;;;;;;;;;;;;5103600;28;20144;-65
2024/01/16 13:25:02;;;;;;;;;;;;;;;;;;5103534;28;19935;-63
2024/01/16 13:27:29;;;;;;;;;;;;;;;;;;5103732;28;20093;-62
2024/01/16 13:29:55;;;;;;;;;;;;;;;;;;5102887;28;19939;-59
2024/01/16 13:32:22;;;;;;;;;;;;;;;;;;5103506;28;19967;-61
2024/01/16 13:34:49;;;;;;;;;;;;;;;;;;5102811;28;19911;-63
2024/01/16 13:37:15;;;;;;;;;;;;;;;;;;5102731;28;19971;-62
2024/01/16 13:39:42;;;;;;;;;;;;;;;;;;5106124;28;19927;-62
2024/01/16 13:42:08;;;;;;;;;;;;;;;;;;5107484;28;19911;-63
2024/01/16 13:44:34;;;;;;;;;;;;;;;;;;5106595;28;20088;-62
2024/01/16 13:47:00;;;;;;;;;;;;;;;;;;5107852;28;19904;-61
2024/01/16 13:49:26;;;;;;;;;;;;;;;;;;5108356;28;19949;-62
2024/01/16 13:51:53;;;;;;;;;;;;;;;;;;5107513;28;19908;-62
2024/01/16 13:54:19;;;;;;;;;;;;;;;;;;5107788;28;20136;-62
2024/01/16 13:56:46;;;;;;;;;;;;;;;;;;5107228;28;20262;-62
2024/01/16 13:59:13;;;;;;;;;;;;;;;;;;5107965;28;19911;-63
2024/01/16 14:01:40;;;;;;;;;;;;;;;;;;5107157;28;20319;-62
2024/01/16 14:04:06;;;;;;;;;;;;;;;;;;5108136;28;20006;-61
2024/01/16 14:06:32;;;;;;;;;;;;;;;;;;5107245;28;20218;-61
2024/01/16 14:08:58;;;;;;;;;;;;;;;;;;5107765;28;20081;-62
2024/01/16 14:11:24;;;;;;;;;;;;;;;;;;5107351;28;19904;-62
2024/01/16 14:13:53;;;;;;;;;;;;;;;;;;5107614;28;20097;-62
2024/01/16 14:16:19;;;;;;;;;;;;;;;;;;5107291;28;20214;-62
2024/01/16 14:18:45;;;;;;;;;;;;;;;;;;5107303;28;19904;-62
2024/01/16 14:21:11;;;;;;;;;;;;;;;;;;5106906;28;19911;-62
2024/01/16 14:23:38;;;;;;;;;;;;;;;;;;5107091;28;19904;-62
2024/01/16 14:26:05;;;;;;;;;;;;;;;;;;5106871;28;19904;-61
2024/01/16 14:28:31;;;;;;;;;;;;;;;;;;5107517;28;19907;-62
2024/01/16 14:30:58;;;;;;;;;;;;;;;;;;5106654;28;19909;-61
2024/01/16 14:33:24;;;;;;;;;;;;;;;;;;5107063;28;19903;-62
2024/01/16 14:35:50;;;;;;;;;;;;;;;;;;5106690;28;19911;-61
2024/01/16 14:38:16;;;;;;;;;;;;;;;;;;5106807;28;19904;-62
2024/01/16 14:40:42;;;;;;;;;;;;;;;;;;5106573;28;19904;-61
2024/01/16 14:43:09;;;;;;;;;;;;;;;;;;5106969;28;19908;-63
2024/01/16 14:45:35;;;;;;;;;;;;;;;;;;5106700;28;20218;-63
2024/01/16 14:48:04;;;;;;;;;;;;;;;;;;5106791;28;20106;-62
2024/01/16 14:50:30;;;;;;;;;;;;;;;;;;5105583;28;19904;-62
2024/01/16 14:52:56;;;;;;;;;;;;;;;;;;5106334;28;20285;-63
2024/01/16 14:55:25;;;;;;;;;;;;;;;;;;5106551;28;19912;-63
2024/01/16 14:57:59;;;;;;;;;;;;;;;;;;5106811;28;19903;-63
2024/01/16 15:00:26;;;;;;;;;;;;;;;;;;5105924;28;19987;-62
2024/01/16 15:02:53;;;;;;;;;;;;;;;;;;5106383;28;19989;-62
2024/01/16 15:05:19;;;;;;;;;;;;;;;;;;5106258;28;19946;-63
2024/01/16 15:07:45;;;;;;;;;;;;;;;;;;5106333;28;19910;-62
2024/01/16 15:10:11;;;;;;;;;;;;;;;;;;5106233;28;19911;-62
2024/01/16 15:12:38;;;;;;;;;;;;;;;;;;5105935;28;19904;-62
2024/01/16 15:15:05;;;;;;;;;;;;;;;;;;5105918;28;19903;-63
2024/01/16 15:17:31;;;;;;;;;;;;;;;;;;5106017;28;19904;-62
2024/01/16 15:19:58;;;;;;;;;;;;;;;;;;5106360;28;19904;-61
2024/01/16 15:22:24;;;;;;;;;;;;;;;;;;5105551;28;20214;-61
2024/01/16 15:24:50;;;;;;;;;;;;;;;;;;5105877;28;19950;-59
2024/01/16 15:27:16;;;;;;;;;;;;;;;;;;5102716;28;19978;-53
2024/01/16 15:29:42;;;;;;;;;;;;;;;;;;5091424;28;20157;-59
2024/01/16 15:32:09;;;;;;;;;;;;;;;;;;5101019;28;19907;-57
2024/01/16 15:34:35;;;;;;;;;;;;;;;;;;5102072;28;19904;-60
2024/01/16 15:37:02;;;;;;;;;;;;;;;;;;5104965;28;19908;-53
2024/01/16 15:39:28;;;;;;;;;;;;;;;;;;5105651;28;20226;-55
2024/01/16 15:41:54;;;;;;;;;;;;;;;;;;5105272;28;19943;-60
2024/01/16 15:44:20;;;;;;;;;;;;;;;;;;5105408;28;19941;-61
2024/01/16 15:46:46;;;;;;;;;;;;;;;;;;5105025;28;19904;-61
2024/01/16 15:49:13;;;;;;;;;;;;;;;;;;5102575;28;19984;-63
2024/01/16 15:51:40;;;;;;;;;;;;;;;;;;5093698;28;20196;-62
2024/01/16 15:54:07;;;;;;;;;;;;;;;;;;5085095;28;19911;-60
2024/01/16 15:56:33;;;;;;;;;;;;;;;;;;5085081;28;19904;-63
2024/01/16 15:58:59;;;;;;;;;;;;;;;;;;5085148;28;20177;-62
2024/01/16 16:01:26;;;;;;;;;;;;;;;;;;5084455;28;20196;-62
2024/01/16 16:03:52;;;;;;;;;;;;;;;;;;5085314;28;19905;-62